Time;durP1;ratioP1;P1;durP2;ratioP2;P2;SDS_P1;SDS_P2;PMS_P1;PMS_P2;Temp;Humidity;BMP_temperature;BMP_pressure;BME280_temperature;BME280_humidity;BME280_pressure;Samples;Min_cycle;Max_cycle;Signal;HPM_P1;HPM_P2
2023/12/23 00:02:13;;;;;;;1.63;0.95;;;;;;;;;;5794827;28;20102;-79
2023/12/23 00:05:05;;;;;;;1.80;1.08;;;;;;;;;;5796122;28;20055;-79
2023/12/23 00:07:56;;;;;;;0.90;0.70;;;;;;;;;;5796345;28;20057;-79
2023/12/23 00:10:46;;;;;;;4.50;2.00;;;;;;;;;;5797125;28;20056;-79
2023/12/23 00:13:37;;;;;;;8.43;1.02;;;;;;;;;;5779887;28;20043;-80
2023/12/23 00:16:28;;;;;;;0.40;0.40;;;;;;;;;;5797057;28;20043;-79
2023/12/23 00:19:19;;;;;;;0.30;0.30;;;;;;;;;;5795260;28;20081;-79
2023/12/23 00:22:10;;;;;;;1.48;0.65;;;;;;;;;;5795369;28;20401;-79
2023/12/23 00:25:00;;;;;;;3.03;1.13;;;;;;;;;;5797352;28;20123;-79
2023/12/23 00:27:51;;;;;;;0.43;0.30;;;;;;;;;;5795692;28;20050;-81
2023/12/23 00:30:42;;;;;;;0.57;0.45;;;;;;;;;;5779381;28;20050;-79
2023/12/23 00:33:33;;;;;;;0.68;0.43;;;;;;;;;;5796707;28;20487;-79
2023/12/23 00:36:24;;;;;;;0.82;0.82;;;;;;;;;;5779538;28;20548;-79
2023/12/23 00:39:15;;;;;;;0.73;0.45;;;;;;;;;;5806601;28;20072;-79
2023/12/23 00:42:06;;;;;;;6.35;0.60;;;;;;;;;;5796640;28;20047;-78
2023/12/23 00:44:56;;;;;;;0.30;0.30;;;;;;;;;;5795563;28;20042;-79
2023/12/23 00:47:47;;;;;;;0.68;0.68;;;;;;;;;;5796495;28;20475;-80
2023/12/23 00:50:38;;;;;;;1.08;0.75;;;;;;;;;;5796221;28;20053;-80
2023/12/23 00:53:29;;;;;;;0.10;0.10;;;;;;;;;;5778956;28;20043;-79
2023/12/23 00:56:21;;;;;;;0.73;0.73;;;;;;;;;;5794715;28;20058;-79
2023/12/23 00:59:12;;;;;;;0.32;0.32;;;;;;;;;;5778974;28;20516;-79
2023/12/23 01:02:04;;;;;;;0.63;0.63;;;;;;;;;;5790099;28;20047;-80
2023/12/23 01:04:54;;;;;;;2.17;0.35;;;;;;;;;;5789317;28;20058;-79
2023/12/23 01:07:45;;;;;;;2.30;0.60;;;;;;;;;;5810659;28;20461;-79
2023/12/23 01:10:37;;;;;;;0.30;0.30;;;;;;;;;;5795806;28;20054;-79
2023/12/23 01:13:28;;;;;;;0.57;0.30;;;;;;;;;;5795765;28;20046;-79
2023/12/23 01:16:19;;;;;;;1.08;1.00;;;;;;;;;;5794603;28;20062;-80
2023/12/23 01:19:10;;;;;;;1.35;0.95;;;;;;;;;;5810398;28;20253;-80
2023/12/23 01:22:01;;;;;;;0.88;0.80;;;;;;;;;;5794247;28;20051;-80
2023/12/23 01:24:52;;;;;;;0.38;0.38;;;;;;;;;;5794993;28;20134;-80
2023/12/23 01:27:43;;;;;;;1.02;0.40;;;;;;;;;;5809361;28;20417;-80
2023/12/23 01:30:34;;;;;;;7.28;1.33;;;;;;;;;;5793846;28;20111;-80
2023/12/23 01:33:25;;;;;;;0.88;0.65;;;;;;;;;;5795365;28;20058;-80
2023/12/23 01:36:15;;;;;;;0.70;0.50;;;;;;;;;;5762160;28;20058;-80
2023/12/23 01:39:06;;;;;;;14.45;0.93;;;;;;;;;;5793650;28;20050;-80
2023/12/23 01:41:57;;;;;;;2.75;1.85;;;;;;;;;;5794565;28;20055;-79
2023/12/23 01:44:47;;;;;;;0.50;0.50;;;;;;;;;;5793932;28;20054;-79
2023/12/23 01:47:46;;;;;;;0.50;0.50;;;;;;;;;;5793539;28;20429;-80
2023/12/23 01:50:38;;;;;;;0.40;0.40;;;;;;;;;;5807601;28;20039;-79
2023/12/23 01:53:31;;;;;;;0.28;0.28;;;;;;;;;;5794865;28;20496;-79
2023/12/23 01:56:22;;;;;;;0.40;0.40;;;;;;;;;;5793517;28;20051;-80
2023/12/23 01:59:13;;;;;;;0.43;0.43;;;;;;;;;;5793370;28;20061;-80
2023/12/23 02:02:05;;;;;;;3.95;1.33;;;;;;;;;;5793240;28;20273;-79
2023/12/23 02:04:56;;;;;;;1.25;0.50;;;;;;;;;;5777989;28;20062;-79
2023/12/23 02:07:49;;;;;;;3.20;1.13;;;;;;;;;;5794641;28;20046;-80
2023/12/23 02:10:40;;;;;;;2.47;0.60;;;;;;;;;;5794673;28;20124;-80
2023/12/23 02:13:44;;;;;;;0.63;0.63;;;;;;;;;;5793399;28;20109;-80
2023/12/23 02:16:36;;;;;;;0.30;0.30;;;;;;;;;;5806197;28;20043;-80
2023/12/23 02:19:27;;;;;;;1.23;1.13;;;;;;;;;;5793193;28;20050;-80
2023/12/23 02:22:17;;;;;;;2.53;0.98;;;;;;;;;;5793157;28;20417;-80
2023/12/23 02:25:08;;;;;;;1.00;0.90;;;;;;;;;;5802887;28;20058;-80
2023/12/23 02:28:05;;;;;;;0.25;0.25;;;;;;;;;;5793484;28;20049;-80
2023/12/23 02:30:57;;;;;;;5.53;1.23;;;;;;;;;;5793274;28;20054;-79
2023/12/23 02:33:49;;;;;;;0.93;0.93;;;;;;;;;;5777188;28;20412;-80
2023/12/23 02:36:39;;;;;;;2.08;1.17;;;;;;;;;;5792911;28;20053;-80
2023/12/23 02:39:30;;;;;;;0.50;0.50;;;;;;;;;;5776717;28;20129;-79
2023/12/23 02:42:21;;;;;;;1.42;0.55;;;;;;;;;;5792796;28;20054;-79
2023/12/23 02:45:12;;;;;;;0.40;0.40;;;;;;;;;;5788159;28;20511;-79
2023/12/23 02:48:05;;;;;;;1.95;0.65;;;;;;;;;;5792824;28;20081;-79
2023/12/23 02:50:56;;;;;;;0.75;0.65;;;;;;;;;;5809197;28;20429;-79
2023/12/23 02:53:47;;;;;;;13.35;1.65;;;;;;;;;;5777018;28;20050;-80
2023/12/23 02:56:38;;;;;;;5.00;1.15;;;;;;;;;;5791048;28;20051;-80
2023/12/23 02:59:29;;;;;;;2.45;1.02;;;;;;;;;;5792787;28;20043;-80
2023/12/23 03:02:20;;;;;;;0.93;0.93;;;;;;;;;;5776833;28;20505;-79
2023/12/23 03:05:10;;;;;;;0.50;0.38;;;;;;;;;;5792739;28;20054;-79
2023/12/23 03:08:01;;;;;;;0.40;0.40;;;;;;;;;;5792712;28;20057;-79
2023/12/23 03:10:52;;;;;;;0.98;0.93;;;;;;;;;;5794423;28;20420;-79
2023/12/23 03:13:43;;;;;;;0.47;0.47;;;;;;;;;;5793857;28;20055;-79
2023/12/23 03:16:34;;;;;;;4.97;0.60;;;;;;;;;;5793913;28;20050;-79
2023/12/23 03:19:25;;;;;;;4.57;0.57;;;;;;;;;;5792065;28;20133;-79
2023/12/23 03:22:16;;;;;;;3.10;0.43;;;;;;;;;;5794118;28;20442;-80
2023/12/23 03:25:07;;;;;;;0.65;0.65;;;;;;;;;;5802566;28;20059;-79
2023/12/23 03:27:57;;;;;;;0.95;0.40;;;;;;;;;;5793008;28;20062;-81
2023/12/23 03:30:48;;;;;;;0.40;0.40;;;;;;;;;;5793943;28;20046;-80
2023/12/23 03:33:40;;;;;;;0.50;0.50;;;;;;;;;;5793487;28;20057;-80
2023/12/23 03:36:31;;;;;;;2.28;1.50;;;;;;;;;;5793802;28;20479;-79
2023/12/23 03:39:22;;;;;;;1.98;1.15;;;;;;;;;;5797784;28;20062;-79
2023/12/23 03:42:12;;;;;;;0.43;0.43;;;;;;;;;;5796301;28;20143;-80
2023/12/23 03:45:04;;;;;;;0.30;0.30;;;;;;;;;;5798584;28;20051;-80
2023/12/23 03:47:55;;;;;;;0.70;0.70;;;;;;;;;;5798087;28;20061;-80
2023/12/23 03:50:46;;;;;;;0.50;0.25;;;;;;;;;;5796109;28;20042;-80
2023/12/23 03:53:37;;;;;;;4.15;0.80;;;;;;;;;;5780255;28;20043;-80
2023/12/23 03:56:27;;;;;;;0.57;0.57;;;;;;;;;;5796121;28;20050;-79
2023/12/23 03:59:18;;;;;;;1.05;0.63;;;;;;;;;;5811842;28;20066;-80
2023/12/23 04:02:09;;;;;;;0.82;0.80;;;;;;;;;;5780053;28;20074;-79
2023/12/23 04:05:00;;;;;;;2.30;1.50;;;;;;;;;;5796632;28;20120;-79
2023/12/23 04:07:51;;;;;;;0.77;0.77;;;;;;;;;;5780215;28;20051;-80
2023/12/23 04:10:42;;;;;;;0.60;0.60;;;;;;;;;;5780065;28;20145;-80
2023/12/23 04:13:32;;;;;;;7.60;0.98;;;;;;;;;;5809767;28;20118;-80
2023/12/23 04:16:23;;;;;;;2.00;0.40;;;;;;;;;;5811828;28;20046;-80
2023/12/23 04:19:14;;;;;;;0.38;0.38;;;;;;;;;;5779837;28;20393;-79
2023/12/23 04:22:06;;;;;;;0.52;0.52;;;;;;;;;;5797080;28;20570;-79
2023/12/23 04:24:56;;;;;;;0.30;0.30;;;;;;;;;;5796140;28;20063;-79
2023/12/23 04:27:48;;;;;;;1.45;0.40;;;;;;;;;;5779465;28;20420;-79
2023/12/23 04:30:39;;;;;;;0.82;0.50;;;;;;;;;;5795406;28;20069;-80
2023/12/23 04:33:30;;;;;;;1.35;1.17;;;;;;;;;;5796685;28;20042;-79
2023/12/23 04:36:23;;;;;;;0.88;0.50;;;;;;;;;;5807777;28;20062;-79
2023/12/23 04:39:13;;;;;;;0.30;0.30;;;;;;;;;;5796390;28;20142;-79
2023/12/23 04:42:04;;;;;;;0.32;0.32;;;;;;;;;;5811250;28;20051;-79
2023/12/23 04:44:55;;;;;;;0.40;0.40;;;;;;;;;;5797003;28;20134;-79
2023/12/23 04:47:46;;;;;;;2.30;0.68;;;;;;;;;;5794669;28;20046;-79
2023/12/23 04:50:36;;;;;;;0.30;0.30;;;;;;;;;;5778912;28;20053;-78
2023/12/23 04:53:28;;;;;;;0.30;0.30;;;;;;;;;;5796155;28;20074;-79
2023/12/23 04:56:18;;;;;;;0.73;0.73;;;;;;;;;;5796079;28;20046;-78
2023/12/23 04:59:09;;;;;;;0.30;0.30;;;;;;;;;;5795944;28;20058;-79
2023/12/23 05:02:00;;;;;;;0.45;0.45;;;;;;;;;;5796598;28;20428;-79
2023/12/23 05:04:52;;;;;;;0.20;0.20;;;;;;;;;;5794970;28;20050;-79
2023/12/23 05:07:43;;;;;;;0.30;0.30;;;;;;;;;;5794662;28;20501;-79
2023/12/23 05:10:34;;;;;;;0.85;0.50;;;;;;;;;;5794661;28;20046;-80
2023/12/23 05:13:24;;;;;;;4.43;1.15;;;;;;;;;;5794769;28;20043;-79
2023/12/23 05:16:15;;;;;;;1.52;0.70;;;;;;;;;;5796180;28;20601;-78
2023/12/23 05:19:06;;;;;;;1.02;0.93;;;;;;;;;;5778537;28;20058;-80
2023/12/23 05:21:57;;;;;;;1.30;1.20;;;;;;;;;;5794972;28;20051;-79
2023/12/23 05:24:48;;;;;;;10.00;0.80;;;;;;;;;;5794345;28;20042;-79
2023/12/23 05:27:39;;;;;;;0.90;0.30;;;;;;;;;;5795894;28;20078;-80
2023/12/23 05:30:30;;;;;;;0.30;0.30;;;;;;;;;;5794394;28;20054;-79
2023/12/23 05:33:24;;;;;;;0.20;0.20;;;;;;;;;;5794070;28;20054;-79
2023/12/23 05:36:15;;;;;;;0.55;0.40;;;;;;;;;;5794284;28;20047;-78
2023/12/23 05:39:06;;;;;;;2.90;1.13;;;;;;;;;;5793803;28;20058;-78
2023/12/23 05:41:58;;;;;;;1.25;0.73;;;;;;;;;;5795762;28;20129;-79
2023/12/23 05:44:49;;;;;;;0.40;0.32;;;;;;;;;;5777997;28;20050;-79
2023/12/23 05:47:40;;;;;;;0.30;0.30;;;;;;;;;;5778141;28;20058;-79
2023/12/23 05:50:31;;;;;;;1.77;1.05;;;;;;;;;;5793700;28;20051;-78
2023/12/23 05:53:22;;;;;;;7.00;1.38;;;;;;;;;;5794876;28;20046;-78
2023/12/23 05:56:13;;;;;;;0.32;0.32;;;;;;;;;;5793830;28;20117;-78
2023/12/23 05:59:04;;;;;;;0.32;0.32;;;;;;;;;;5794668;28;20051;-79
2023/12/23 06:01:55;;;;;;;0.20;0.20;;;;;;;;;;5793768;28;20082;-79
2023/12/23 06:04:46;;;;;;;0.55;0.55;;;;;;;;;;5793914;28;20511;-79
2023/12/23 06:07:37;;;;;;;0.68;0.68;;;;;;;;;;5793595;28;20130;-78
2023/12/23 06:10:28;;;;;;;0.73;0.63;;;;;;;;;;5793242;28;20047;-79
2023/12/23 06:13:21;;;;;;;1.00;0.52;;;;;;;;;;5794539;28;20054;-79
2023/12/23 06:16:12;;;;;;;0.30;0.30;;;;;;;;;;5777605;28;20061;-79
2023/12/23 06:19:03;;;;;;;1.38;0.95;;;;;;;;;;5793503;28;20051;-78
2023/12/23 06:21:53;;;;;;;1.65;0.82;;;;;;;;;;5809720;28;20054;-78
2023/12/23 06:24:44;;;;;;;1.13;0.95;;;;;;;;;;5793436;28;20046;-79
2023/12/23 06:27:35;;;;;;;0.55;0.55;;;;;;;;;;5793258;28;20055;-79
2023/12/23 06:30:26;;;;;;;0.40;0.40;;;;;;;;;;5777387;28;20405;-79
2023/12/23 06:33:16;;;;;;;0.38;0.38;;;;;;;;;;5793197;28;20109;-78
2023/12/23 06:36:08;;;;;;;0.80;0.73;;;;;;;;;;5794591;28;20517;-79
2023/12/23 06:38:59;;;;;;;3.05;1.45;;;;;;;;;;5795080;28;20046;-79
2023/12/23 06:41:50;;;;;;;0.93;0.55;;;;;;;;;;5794295;28;20050;-79
2023/12/23 06:44:41;;;;;;;1.27;1.17;;;;;;;;;;5794333;28;20047;-79
2023/12/23 06:47:32;;;;;;;1.42;0.80;;;;;;;;;;5792896;28;20043;-79
2023/12/23 06:50:23;;;;;;;0.68;0.40;;;;;;;;;;5789178;28;20043;-79
2023/12/23 06:53:14;;;;;;;2.08;0.50;;;;;;;;;;5794404;28;20200;-79
2023/12/23 06:56:06;;;;;;;0.28;0.25;;;;;;;;;;5776904;28;20062;-79
2023/12/23 06:58:59;;;;;;;0.68;0.38;;;;;;;;;;5777347;28;20137;-79
2023/12/23 07:01:50;;;;;;;1.55;1.10;;;;;;;;;;5793207;28;20101;-78
2023/12/23 07:04:42;;;;;;;1.13;0.85;;;;;;;;;;5776810;28;20158;-79
2023/12/23 07:07:33;;;;;;;0.30;0.30;;;;;;;;;;5794078;28;20043;-79
2023/12/23 07:10:23;;;;;;;0.30;0.30;;;;;;;;;;5792964;28;20042;-79
2023/12/23 07:13:14;;;;;;;1.98;0.32;;;;;;;;;;5797369;28;20420;-79
2023/12/23 07:16:06;;;;;;;4.72;0.50;;;;;;;;;;5798591;28;20058;-79
2023/12/23 07:18:56;;;;;;;1.08;0.70;;;;;;;;;;5799199;28;20432;-80
2023/12/23 07:21:52;;;;;;;0.30;0.30;;;;;;;;;;5796964;28;20526;-80
2023/12/23 07:24:43;;;;;;;0.52;0.52;;;;;;;;;;5812491;28;20405;-79
2023/12/23 07:27:34;;;;;;;1.70;0.70;;;;;;;;;;5797056;28;20050;-79
2023/12/23 07:30:25;;;;;;;0.55;0.55;;;;;;;;;;5797240;28;20061;-80
2023/12/23 07:33:16;;;;;;;0.75;0.43;;;;;;;;;;5781282;28;20050;-80
2023/12/23 07:36:07;;;;;;;3.40;0.93;;;;;;;;;;5798270;28;20051;-79
2023/12/23 07:38:57;;;;;;;1.70;1.23;;;;;;;;;;5797232;28;20466;-80
2023/12/23 07:41:48;;;;;;;0.80;0.80;;;;;;;;;;5796580;28;20046;-79
2023/12/23 07:44:39;;;;;;;1.27;1.20;;;;;;;;;;5796341;28;20046;-79
2023/12/23 07:47:30;;;;;;;1.33;1.20;;;;;;;;;;5796523;28;20511;-79
2023/12/23 07:50:22;;;;;;;0.40;0.40;;;;;;;;;;5796173;28;20054;-79
2023/12/23 07:53:13;;;;;;;0.40;0.40;;;;;;;;;;5796414;28;20055;-80
2023/12/23 07:56:05;;;;;;;0.85;0.85;;;;;;;;;;5796030;28;20050;-79
2023/12/23 07:58:57;;;;;;;1.55;1.45;;;;;;;;;;5796923;28;20051;-79
2023/12/23 08:01:48;;;;;;;0.47;0.47;;;;;;;;;;5812070;28;20049;-80
2023/12/23 08:04:39;;;;;;;0.52;0.50;;;;;;;;;;5797457;28;20190;-79
2023/12/23 08:07:30;;;;;;;0.40;0.40;;;;;;;;;;5796125;28;20054;-79
2023/12/23 08:10:20;;;;;;;1.50;0.57;;;;;;;;;;5780202;28;20066;-78
2023/12/23 08:13:11;;;;;;;0.60;0.60;;;;;;;;;;5797275;28;20059;-79
2023/12/23 08:16:03;;;;;;;0.35;0.35;;;;;;;;;;5797415;28;20054;-79
2023/12/23 08:18:54;;;;;;;0.50;0.50;;;;;;;;;;5796724;28;20160;-79
2023/12/23 08:21:44;;;;;;;1.75;0.77;;;;;;;;;;5795900;28;20047;-79
2023/12/23 08:24:35;;;;;;;0.57;0.55;;;;;;;;;;5794979;28;20047;-79
2023/12/23 08:27:26;;;;;;;0.30;0.30;;;;;;;;;;5808911;28;20409;-78
2023/12/23 08:30:17;;;;;;;2.83;0.88;;;;;;;;;;5779921;28;20047;-80
2023/12/23 08:33:10;;;;;;;1.65;0.47;;;;;;;;;;5789974;28;20051;-78
2023/12/23 08:36:01;;;;;;;1.65;0.50;;;;;;;;;;5796817;28;20057;-79
2023/12/23 08:38:54;;;;;;;0.30;0.30;;;;;;;;;;5797459;28;20059;-80
2023/12/23 08:41:45;;;;;;;0.40;0.40;;;;;;;;;;5795406;28;20501;-79
2023/12/23 08:44:36;;;;;;;3.78;1.83;;;;;;;;;;5793668;28;20042;-79
2023/12/23 08:47:26;;;;;;;2.97;0.50;;;;;;;;;;5779530;28;20043;-80
2023/12/23 08:50:20;;;;;;;0.55;0.50;;;;;;;;;;5795326;28;20191;-79
2023/12/23 08:53:11;;;;;;;1.02;0.98;;;;;;;;;;5796499;28;20047;-79
2023/12/23 08:56:02;;;;;;;0.57;0.57;;;;;;;;;;5811563;28;20057;-80
2023/12/23 08:58:53;;;;;;;0.70;0.70;;;;;;;;;;5779834;28;20181;-80
2023/12/23 09:01:44;;;;;;;0.52;0.52;;;;;;;;;;5810751;28;20047;-80
2023/12/23 09:04:35;;;;;;;3.15;1.17;;;;;;;;;;5795096;28;20129;-80
2023/12/23 09:07:25;;;;;;;0.60;0.57;;;;;;;;;;5794955;28;20150;-80
2023/12/23 09:10:16;;;;;;;0.55;0.43;;;;;;;;;;5778898;28;20077;-80
2023/12/23 09:13:07;;;;;;;1.50;0.95;;;;;;;;;;5795954;28;20523;-79
2023/12/23 09:16:03;;;;;;;0.75;0.75;;;;;;;;;;5779291;28;20054;-80
2023/12/23 09:18:54;;;;;;;1.55;0.25;;;;;;;;;;5794653;28;20132;-79
2023/12/23 09:21:44;;;;;;;0.82;0.70;;;;;;;;;;5794592;28;20432;-80
2023/12/23 09:24:36;;;;;;;0.57;0.57;;;;;;;;;;5794214;28;20051;-80
2023/12/23 09:27:28;;;;;;;1.85;1.08;;;;;;;;;;5794309;28;20047;-79
2023/12/23 09:30:19;;;;;;;0.40;0.40;;;;;;;;;;5794499;28;20386;-80
2023/12/23 09:33:10;;;;;;;4.18;1.45;;;;;;;;;;5794021;28;20046;-79
2023/12/23 09:36:01;;;;;;;0.98;0.75;;;;;;;;;;5794045;28;20138;-80
2023/12/23 09:38:52;;;;;;;1.35;1.10;;;;;;;;;;5803289;28;20058;-79
2023/12/23 09:41:44;;;;;;;0.20;0.20;;;;;;;;;;5809925;28;20472;-80
2023/12/23 09:44:35;;;;;;;0.77;0.77;;;;;;;;;;5795179;28;20050;-80
2023/12/23 09:47:26;;;;;;;1.13;1.08;;;;;;;;;;5794058;28;20047;-81
2023/12/23 09:50:17;;;;;;;1.52;1.42;;;;;;;;;;5793708;28;20043;-79
2023/12/23 09:53:12;;;;;;;1.85;0.63;;;;;;;;;;5793834;28;20161;-79
2023/12/23 09:56:07;;;;;;;5.95;1.38;;;;;;;;;;5777943;28;20065;-80
2023/12/23 09:58:57;;;;;;;1.58;0.98;;;;;;;;;;5794066;28;20054;-80
2023/12/23 10:01:48;;;;;;;0.40;0.40;;;;;;;;;;5810004;28;20446;-80
2023/12/23 10:04:39;;;;;;;0.22;0.22;;;;;;;;;;5793810;28;20412;-79
2023/12/23 10:07:31;;;;;;;1.23;0.80;;;;;;;;;;5793466;28;20069;-80
2023/12/23 10:10:22;;;;;;;2.38;0.77;;;;;;;;;;5805748;28;20051;-79
2023/12/23 10:13:13;;;;;;;0.45;0.45;;;;;;;;;;5794648;28;20405;-80
2023/12/23 10:16:04;;;;;;;1.42;1.02;;;;;;;;;;5803336;28;20062;-80
2023/12/23 10:18:56;;;;;;;1.20;1.13;;;;;;;;;;5810631;28;20058;-79
2023/12/23 10:21:48;;;;;;;1.95;1.33;;;;;;;;;;5777195;28;20050;-80
2023/12/23 10:24:39;;;;;;;1.15;0.68;;;;;;;;;;5808139;28;20359;-80
2023/12/23 10:27:33;;;;;;;0.63;0.57;;;;;;;;;;5777175;28;20054;-79
2023/12/23 10:30:25;;;;;;;1.08;1.05;;;;;;;;;;5777492;28;20047;-79
2023/12/23 10:33:17;;;;;;;1.95;1.45;;;;;;;;;;5793085;28;20050;-79
2023/12/23 10:36:13;;;;;;;0.95;0.85;;;;;;;;;;5793183;28;20098;-79
2023/12/23 10:39:16;;;;;;;1.85;0.77;;;;;;;;;;5793408;28;20059;-80
2023/12/23 10:42:10;;;;;;;3.38;1.75;;;;;;;;;;5777754;28;20131;-80
2023/12/23 10:45:01;;;;;;;10.15;5.18;;;;;;;;;;5793011;28;20054;-79
2023/12/23 10:47:52;;;;;;;6.07;3.38;;;;;;;;;;5801225;28;20065;-79
2023/12/23 10:50:47;;;;;;;9.88;1.88;;;;;;;;;;5808552;28;20051;-79
2023/12/23 10:53:38;;;;;;;2.67;1.60;;;;;;;;;;5777530;28;20054;-80
2023/12/23 10:56:29;;;;;;;3.00;1.75;;;;;;;;;;5792985;28;20054;-80
2023/12/23 10:59:21;;;;;;;7.75;1.92;;;;;;;;;;5776729;28;20243;-79
2023/12/23 11:02:14;;;;;;;7.28;3.20;;;;;;;;;;5793845;28;20054;-79
2023/12/23 11:05:08;;;;;;;1.58;1.33;;;;;;;;;;5777173;28;20057;-80
2023/12/23 11:08:02;;;;;;;1.75;1.30;;;;;;;;;;5793515;28;20062;-79
2023/12/23 11:11:03;;;;;;;8.27;4.30;;;;;;;;;;5792501;28;20057;-79
2023/12/23 11:13:54;;;;;;;3.42;2.67;;;;;;;;;;5794466;28;20085;-80
2023/12/23 11:16:49;;;;;;;4.45;2.33;;;;;;;;;;5794082;28;20843;-79
2023/12/23 11:19:40;;;;;;;5.32;2.03;;;;;;;;;;5793873;28;20124;-79
2023/12/23 11:22:38;;;;;;;9.73;4.93;;;;;;;;;;5792509;28;20066;-80
2023/12/23 11:25:41;;;;;;;9.07;5.95;;;;;;;;;;5793851;28;20067;-80
2023/12/23 11:28:36;;;;;;;7.10;2.50;;;;;;;;;;5792546;28;20046;-79
2023/12/23 11:31:28;;;;;;;6.57;3.38;;;;;;;;;;5805063;28;20056;-79
2023/12/23 11:34:20;;;;;;;12.20;4.00;;;;;;;;;;5776495;28;20135;-80
2023/12/23 11:37:12;;;;;;;7.60;3.40;;;;;;;;;;5792426;28;20134;-79
2023/12/23 11:40:03;;;;;;;3.53;1.98;;;;;;;;;;5776332;28;20405;-79
2023/12/23 11:42:55;;;;;;;2.10;1.75;;;;;;;;;;5776939;28;20055;-79
2023/12/23 11:45:48;;;;;;;12.77;3.47;;;;;;;;;;5792234;28;20050;-79
2023/12/23 11:48:39;;;;;;;7.00;3.20;;;;;;;;;;5792124;28;20047;-80
2023/12/23 11:51:30;;;;;;;3.70;2.38;;;;;;;;;;5792444;28;20043;-79
2023/12/23 11:54:21;;;;;;;3.53;2.03;;;;;;;;;;5777219;28;20055;-79
2023/12/23 11:57:12;;;;;;;4.43;2.85;;;;;;;;;;5776334;28;20061;-80
2023/12/23 12:00:05;;;;;;;1.67;1.00;;;;;;;;;;5779828;28;20054;-79
2023/12/23 12:02:55;;;;;;;5.65;2.85;;;;;;;;;;5796412;28;20508;-79
2023/12/23 12:05:46;;;;;;;8.77;2.90;;;;;;;;;;5780392;28;20055;-79
2023/12/23 12:08:37;;;;;;;8.20;3.10;;;;;;;;;;5812126;28;20046;-79
2023/12/23 12:11:28;;;;;;;5.45;3.15;;;;;;;;;;5795867;28;20062;-79
2023/12/23 12:14:19;;;;;;;1.65;1.17;;;;;;;;;;5795964;28;20497;-79
2023/12/23 12:17:10;;;;;;;4.07;2.83;;;;;;;;;;5811730;28;20053;-78
2023/12/23 12:20:01;;;;;;;5.10;2.78;;;;;;;;;;5787709;28;20405;-78
2023/12/23 12:22:52;;;;;;;3.85;2.22;;;;;;;;;;5798743;28;20138;-79
2023/12/23 12:25:56;;;;;;;12.73;4.82;;;;;;;;;;5800672;28;20405;-78
2023/12/23 12:28:48;;;;;;;3.97;2.28;;;;;;;;;;5818210;28;20116;-78
2023/12/23 12:31:41;;;;;;;4.90;3.35;;;;;;;;;;5802143;28;20185;-78
2023/12/23 12:34:32;;;;;;;1.45;1.35;;;;;;;;;;5813510;28;20046;-78
2023/12/23 12:37:23;;;;;;;5.10;2.05;;;;;;;;;;5814458;28;20074;-79
2023/12/23 12:40:14;;;;;;;2.50;1.60;;;;;;;;;;5818786;28;20135;-78
2023/12/23 12:43:08;;;;;;;2.80;2.10;;;;;;;;;;5817455;28;20424;-78
2023/12/23 12:46:01;;;;;;;2.15;1.55;;;;;;;;;;5818535;28;20061;-78
2023/12/23 12:48:52;;;;;;;21.27;1.65;;;;;;;;;;5801788;28;20061;-78
2023/12/23 12:51:43;;;;;;;11.15;1.40;;;;;;;;;;5816925;28;20090;-78
2023/12/23 12:54:34;;;;;;;3.00;2.13;;;;;;;;;;5801230;28;20408;-79
2023/12/23 12:57:28;;;;;;;6.55;2.75;;;;;;;;;;5815682;28;20042;-78
2023/12/23 13:00:19;;;;;;;3.40;2.60;;;;;;;;;;5801096;28;20389;-79
2023/12/23 13:03:11;;;;;;;5.47;2.05;;;;;;;;;;5802183;28;20060;-79
2023/12/23 13:06:02;;;;;;;8.48;3.65;;;;;;;;;;5815546;28;20616;-79
2023/12/23 13:08:53;;;;;;;1.52;1.20;;;;;;;;;;5818009;28;20125;-79
2023/12/23 13:11:44;;;;;;;4.65;2.17;;;;;;;;;;5815464;28;20049;-79
2023/12/23 13:14:37;;;;;;;1.27;1.17;;;;;;;;;;5817647;28;20053;-79
2023/12/23 13:17:28;;;;;;;1.40;1.20;;;;;;;;;;5794457;28;20043;-78
2023/12/23 13:20:19;;;;;;;4.53;2.60;;;;;;;;;;5795720;28;20099;-78
2023/12/23 13:23:10;;;;;;;2.78;1.30;;;;;;;;;;5816472;28;20129;-79
2023/12/23 13:26:01;;;;;;;2.60;1.95;;;;;;;;;;5783834;28;20154;-79
2023/12/23 13:28:52;;;;;;;1.75;1.38;;;;;;;;;;5771025;28;20059;-79
2023/12/23 13:31:43;;;;;;;4.32;1.42;;;;;;;;;;5816361;28;20515;-79
2023/12/23 13:34:34;;;;;;;1.35;1.30;;;;;;;;;;5816192;28;20116;-79
2023/12/23 13:37:25;;;;;;;1.20;0.88;;;;;;;;;;5796340;28;20054;-80
2023/12/23 13:40:16;;;;;;;3.00;1.33;;;;;;;;;;5796437;28;20050;-79
2023/12/23 13:43:06;;;;;;;1.83;1.63;;;;;;;;;;5800396;28;20050;-79
2023/12/23 13:45:57;;;;;;;2.42;0.93;;;;;;;;;;5815623;28;20077;-79
2023/12/23 13:48:48;;;;;;;2.70;1.17;;;;;;;;;;5832413;28;20049;-79
2023/12/23 13:51:39;;;;;;;4.63;1.55;;;;;;;;;;5803110;28;20070;-79
2023/12/23 13:54:30;;;;;;;3.85;1.90;;;;;;;;;;5815990;28;20046;-79
2023/12/23 13:57:20;;;;;;;4.22;1.95;;;;;;;;;;5815794;28;20050;-79
2023/12/23 14:00:12;;;;;;;4.72;2.60;;;;;;;;;;5816027;28;20046;-80
2023/12/23 14:03:03;;;;;;;3.13;1.83;;;;;;;;;;5817096;28;20050;-79
2023/12/23 14:05:57;;;;;;;1.27;1.17;;;;;;;;;;5825273;28;20054;-79
2023/12/23 14:08:48;;;;;;;1.60;1.15;;;;;;;;;;5816219;28;20416;-79
2023/12/23 14:11:39;;;;;;;0.70;0.70;;;;;;;;;;5817747;28;20516;-80
2023/12/23 14:14:29;;;;;;;1.48;1.38;;;;;;;;;;5817183;28;20043;-79
2023/12/23 14:17:20;;;;;;;3.15;2.05;;;;;;;;;;5816856;28;20054;-80
2023/12/23 14:20:11;;;;;;;2.20;1.60;;;;;;;;;;5816088;28;20551;-79
2023/12/23 14:23:06;;;;;;;4.40;2.30;;;;;;;;;;5815513;28;20101;-80
2023/12/23 14:25:57;;;;;;;12.57;2.03;;;;;;;;;;5816340;28;20050;-79
2023/12/23 14:28:48;;;;;;;2.65;1.70;;;;;;;;;;5832667;28;20568;-80
2023/12/23 14:31:40;;;;;;;1.80;1.67;;;;;;;;;;5818237;28;20046;-80
2023/12/23 14:34:31;;;;;;;1.10;1.00;;;;;;;;;;5817891;28;20054;-80
2023/12/23 14:37:22;;;;;;;1.85;1.00;;;;;;;;;;5816105;28;20056;-80
2023/12/23 14:40:18;;;;;;;3.53;1.98;;;;;;;;;;5817197;28;20055;-80
2023/12/23 14:43:09;;;;;;;5.05;1.50;;;;;;;;;;5815671;28;20046;-80
2023/12/23 14:46:00;;;;;;;2.30;2.10;;;;;;;;;;5816649;28;20484;-79
2023/12/23 14:48:50;;;;;;;2.22;1.38;;;;;;;;;;5832081;28;20042;-81
2023/12/23 14:51:41;;;;;;;3.13;1.83;;;;;;;;;;5815479;28;20057;-81
2023/12/23 14:54:33;;;;;;;2.28;1.95;;;;;;;;;;5815583;28;20057;-80
2023/12/23 14:57:23;;;;;;;8.95;2.35;;;;;;;;;;5812126;28;20042;-81
2023/12/23 15:00:15;;;;;;;5.65;3.08;;;;;;;;;;5827013;28;20058;-81
2023/12/23 15:03:06;;;;;;;4.70;2.90;;;;;;;;;;5817299;28;20050;-81
2023/12/23 15:05:57;;;;;;;7.38;4.00;;;;;;;;;;5825239;28;20050;-80
2023/12/23 15:08:48;;;;;;;11.70;6.50;;;;;;;;;;5815508;28;20400;-80
2023/12/23 15:11:39;;;;;;;5.57;2.72;;;;;;;;;;5817950;28;20053;-80
2023/12/23 15:14:29;;;;;;;6.90;3.00;;;;;;;;;;5813384;28;20053;-80
2023/12/23 15:17:20;;;;;;;5.30;2.55;;;;;;;;;;5832045;28;21040;-80
2023/12/23 15:20:11;;;;;;;7.18;3.05;;;;;;;;;;5815227;28;20093;-80
2023/12/23 15:23:02;;;;;;;5.82;2.40;;;;;;;;;;5816170;28;20051;-80
2023/12/23 15:25:53;;;;;;;9.20;2.17;;;;;;;;;;5815679;28;20050;-81
2023/12/23 15:28:43;;;;;;;2.13;1.50;;;;;;;;;;5815078;28;20049;-81
2023/12/23 15:31:34;;;;;;;3.67;2.05;;;;;;;;;;5816589;28;20042;-80
2023/12/23 15:34:25;;;;;;;4.18;2.55;;;;;;;;;;5832249;28;20531;-80
2023/12/23 15:37:16;;;;;;;5.65;2.08;;;;;;;;;;5819544;28;20069;-80
2023/12/23 15:40:08;;;;;;;3.15;2.53;;;;;;;;;;5829809;28;20057;-80
2023/12/23 15:42:59;;;;;;;8.80;3.67;;;;;;;;;;5829107;28;20053;-80
2023/12/23 15:45:49;;;;;;;2.08;1.77;;;;;;;;;;5819277;28;20060;-80
2023/12/23 15:48:40;;;;;;;5.50;1.38;;;;;;;;;;5834544;28;20058;-80
2023/12/23 15:51:31;;;;;;;5.68;3.15;;;;;;;;;;5817299;28;20129;-81
2023/12/23 15:54:22;;;;;;;3.33;2.30;;;;;;;;;;5820286;28;20050;-80
2023/12/23 15:57:12;;;;;;;1.88;1.30;;;;;;;;;;5830274;28;20054;-80
2023/12/23 16:00:04;;;;;;;1.75;1.55;;;;;;;;;;5828926;28;20042;-80
2023/12/23 16:02:56;;;;;;;1.60;1.27;;;;;;;;;;5819240;28;20073;-81
2023/12/23 16:05:47;;;;;;;2.08;1.33;;;;;;;;;;5818509;28;20049;-81
2023/12/23 16:08:38;;;;;;;1.98;1.67;;;;;;;;;;5817292;28;20085;-81
2023/12/23 16:11:29;;;;;;;7.13;1.67;;;;;;;;;;5816074;28;20058;-80
2023/12/23 16:14:20;;;;;;;1.17;1.05;;;;;;;;;;5818647;28;20230;-81
2023/12/23 16:17:11;;;;;;;2.28;1.55;;;;;;;;;;5820208;28;20129;-81
2023/12/23 16:20:02;;;;;;;1.48;1.15;;;;;;;;;;5834600;28;20109;-80
2023/12/23 16:22:53;;;;;;;1.50;1.15;;;;;;;;;;5819126;28;20425;-81
2023/12/23 16:25:45;;;;;;;1.92;1.38;;;;;;;;;;5820506;28;20046;-81
2023/12/23 16:28:36;;;;;;;2.85;2.17;;;;;;;;;;5819539;28;20066;-81
2023/12/23 16:31:27;;;;;;;4.22;1.90;;;;;;;;;;5820044;28;20042;-81
2023/12/23 16:34:18;;;;;;;4.60;3.22;;;;;;;;;;5830574;28;20050;-81
2023/12/23 16:37:09;;;;;;;2.20;1.85;;;;;;;;;;5819729;28;20141;-80
2023/12/23 16:40:00;;;;;;;5.82;2.63;;;;;;;;;;5818976;28;20046;-81
2023/12/23 16:42:51;;;;;;;5.28;2.15;;;;;;;;;;5826852;28;20042;-81
2023/12/23 16:45:42;;;;;;;3.50;2.33;;;;;;;;;;5817736;28;20052;-81
2023/12/23 16:48:33;;;;;;;4.93;1.50;;;;;;;;;;5816296;28;20045;-81
2023/12/23 16:51:24;;;;;;;1.30;1.20;;;;;;;;;;5814548;28;20390;-81
2023/12/23 16:54:15;;;;;;;3.75;1.80;;;;;;;;;;5834312;28;20054;-81
2023/12/23 16:57:06;;;;;;;2.05;1.73;;;;;;;;;;5819200;28;20064;-80
2023/12/23 16:59:57;;;;;;;4.97;2.17;;;;;;;;;;5813923;28;20073;-81
2023/12/23 17:02:47;;;;;;;1.80;1.48;;;;;;;;;;5794432;28;20043;-81
2023/12/23 17:05:39;;;;;;;2.83;1.80;;;;;;;;;;5795113;28;20094;-81
2023/12/23 17:08:30;;;;;;;7.13;3.17;;;;;;;;;;5779452;28;20095;-81